sensor_id;sensor_type;location;lat;lon;timestamp;temperature;humidity
4820;DHT22;2424;49.696;6.630;2022-12-18T00:00:56;-8.90;99.90
4820;DHT22;2424;49.696;6.630;2022-12-18T00:06:18;-8.90;99.90
4820;DHT22;2424;49.696;6.630;2022-12-18T00:11:42;-8.90;99.90
4820;DHT22;2424;49.696;6.630;2022-12-18T00:17:04;-8.90;99.90
4820;DHT22;2424;49.696;6.630;2022-12-18T00:22:25;-8.90;99.90
4820;DHT22;2424;49.696;6.630;2022-12-18T00:27:49;-8.90;99.90
4820;DHT22;2424;49.696;6.630;2022-12-18T00:33:11;-8.80;99.90
4820;DHT22;2424;49.696;6.630;2022-12-18T00:38:33;-8.90;99.90
4820;DHT22;2424;49.696;6.630;2022-12-18T00:43:56;-8.90;99.90
4820;DHT22;2424;49.696;6.630;2022-12-18T00:49:19;-8.90;99.90
4820;DHT22;2424;49.696;6.630;2022-12-18T00:54:41;-8.90;99.90
4820;DHT22;2424;49.696;6.630;2022-12-18T01:00:06;-8.90;99.90
4820;DHT22;2424;49.696;6.630;2022-12-18T01:05:29;-8.90;99.90
4820;DHT22;2424;49.696;6.630;2022-12-18T01:10:51;-8.90;99.90
4820;DHT22;2424;49.696;6.630;2022-12-18T01:16:15;-9.00;99.90
4820;DHT22;2424;49.696;6.630;2022-12-18T01:21:37;-9.00;99.90
4820;DHT22;2424;49.696;6.630;2022-12-18T01:26:59;-9.00;99.90
4820;DHT22;2424;49.696;6.630;2022-12-18T01:32:22;-8.90;99.90
4820;DHT22;2424;49.696;6.630;2022-12-18T01:37:44;-9.00;99.90
4820;DHT22;2424;49.696;6.630;2022-12-18T01:43:09;-8.90;99.90
4820;DHT22;2424;49.696;6.630;2022-12-18T01:48:32;-9.00;99.90
4820;DHT22;2424;49.696;6.630;2022-12-18T01:53:54;-9.10;99.90
4820;DHT22;2424;49.696;6.630;2022-12-18T01:59:17;-9.10;99.90
4820;DHT22;2424;49.696;6.630;2022-12-18T02:04:40;-9.10;99.90
4820;DHT22;2424;49.696;6.630;2022-12-18T02:10:06;-9.10;99.90
4820;DHT22;2424;49.696;6.630;2022-12-18T02:15:36;-9.10;99.90
4820;DHT22;2424;49.696;6.630;2022-12-18T02:21:10;-9.10;99.90
4820;DHT22;2424;49.696;6.630;2022-12-18T02:26:37;-9.10;99.90
4820;DHT22;2424;49.696;6.630;2022-12-18T02:32:04;-9.10;99.90
4820;DHT22;2424;49.696;6.630;2022-12-18T02:37:28;-9.10;99.90
4820;DHT22;2424;49.696;6.630;2022-12-18T02:42:52;-9.10;99.90
4820;DHT22;2424;49.696;6.630;2022-12-18T02:48:14;-9.10;99.90
4820;DHT22;2424;49.696;6.630;2022-12-18T02:53:40;-9.20;99.90
4820;DHT22;2424;49.696;6.630;2022-12-18T02:59:07;-9.10;99.90
4820;DHT22;2424;49.696;6.630;2022-12-18T03:04:36;-9.10;99.90
4820;DHT22;2424;49.696;6.630;2022-12-18T03:10:00;-9.20;99.90
4820;DHT22;2424;49.696;6.630;2022-12-18T03:15:26;-9.20;99.90
4820;DHT22;2424;49.696;6.630;2022-12-18T03:20:52;-9.30;99.90
4820;DHT22;2424;49.696;6.630;2022-12-18T03:26:17;-9.40;99.90
4820;DHT22;2424;49.696;6.630;2022-12-18T03:31:47;-9.30;99.90
4820;DHT22;2424;49.696;6.630;2022-12-18T03:37:09;-9.30;99.90
4820;DHT22;2424;49.696;6.630;2022-12-18T03:42:39;-9.30;99.90
4820;DHT22;2424;49.696;6.630;2022-12-18T03:48:10;-9.30;99.90
4820;DHT22;2424;49.696;6.630;2022-12-18T03:53:37;-9.40;99.90
4820;DHT22;2424;49.696;6.630;2022-12-18T03:59:02;-9.30;99.90
4820;DHT22;2424;49.696;6.630;2022-12-18T04:04:28;-9.30;99.90
4820;DHT22;2424;49.696;6.630;2022-12-18T04:09:53;-9.30;99.90
4820;DHT22;2424;49.696;6.630;2022-12-18T04:15:17;-9.40;99.90
4820;DHT22;2424;49.696;6.630;2022-12-18T04:20:40;-9.40;99.90
4820;DHT22;2424;49.696;6.630;2022-12-18T04:26:02;-9.40;99.90
4820;DHT22;2424;49.696;6.630;2022-12-18T04:31:24;-9.40;99.90
4820;DHT22;2424;49.696;6.630;2022-12-18T04:36:48;-9.40;99.90
4820;DHT22;2424;49.696;6.630;2022-12-18T04:42:10;-9.50;99.90
4820;DHT22;2424;49.696;6.630;2022-12-18T04:47:31;-9.50;99.90
4820;DHT22;2424;49.696;6.630;2022-12-18T04:52:55;-9.50;99.90
4820;DHT22;2424;49.696;6.630;2022-12-18T04:58:17;-9.50;99.90
4820;DHT22;2424;49.696;6.630;2022-12-18T05:03:39;-9.40;99.90
4820;DHT22;2424;49.696;6.630;2022-12-18T05:09:03;-9.50;99.90
4820;DHT22;2424;49.696;6.630;2022-12-18T05:14:25;-9.40;99.90
4820;DHT22;2424;49.696;6.630;2022-12-18T05:19:48;-9.50;99.90
4820;DHT22;2424;49.696;6.630;2022-12-18T05:25:11;-9.60;99.90
4820;DHT22;2424;49.696;6.630;2022-12-18T05:30:34;-9.60;99.90
4820;DHT22;2424;49.696;6.630;2022-12-18T05:35:57;-9.60;99.90
4820;DHT22;2424;49.696;6.630;2022-12-18T05:41:23;-9.70;99.90
4820;DHT22;2424;49.696;6.630;2022-12-18T05:46:45;-9.60;99.90
4820;DHT22;2424;49.696;6.630;2022-12-18T05:52:08;-9.60;99.90
4820;DHT22;2424;49.696;6.630;2022-12-18T05:57:32;-9.50;99.90
4820;DHT22;2424;49.696;6.630;2022-12-18T06:02:53;-9.50;99.90
4820;DHT22;2424;49.696;6.630;2022-12-18T06:08:15;-9.70;99.90
4820;DHT22;2424;49.696;6.630;2022-12-18T06:13:39;-9.70;99.90
4820;DHT22;2424;49.696;6.630;2022-12-18T06:19:03;-9.80;99.90
4820;DHT22;2424;49.696;6.630;2022-12-18T06:24:25;-9.80;99.90
4820;DHT22;2424;49.696;6.630;2022-12-18T06:29:49;-9.80;99.90
4820;DHT22;2424;49.696;6.630;2022-12-18T06:35:11;-9.80;99.90
4820;DHT22;2424;49.696;6.630;2022-12-18T06:40:33;-9.80;99.90
4820;DHT22;2424;49.696;6.630;2022-12-18T06:46:00;-9.80;99.90
4820;DHT22;2424;49.696;6.630;2022-12-18T06:51:23;-9.80;99.90
4820;DHT22;2424;49.696;6.630;2022-12-18T06:56:45;-9.70;99.90
4820;DHT22;2424;49.696;6.630;2022-12-18T07:02:11;-9.80;99.90
4820;DHT22;2424;49.696;6.630;2022-12-18T07:07:35;-9.80;99.90
4820;DHT22;2424;49.696;6.630;2022-12-18T07:12:57;-9.80;99.90
4820;DHT22;2424;49.696;6.630;2022-12-18T07:18:20;-9.80;99.90
4820;DHT22;2424;49.696;6.630;2022-12-18T07:23:42;-9.80;99.90
4820;DHT22;2424;49.696;6.630;2022-12-18T07:29:05;-9.80;99.90
4820;DHT22;2424;49.696;6.630;2022-12-18T07:34:28;-9.90;99.90
4820;DHT22;2424;49.696;6.630;2022-12-18T07:39:50;-9.80;99.90
4820;DHT22;2424;49.696;6.630;2022-12-18T07:45:12;-9.80;99.90
4820;DHT22;2424;49.696;6.630;2022-12-18T07:50:36;-9.80;99.90
4820;DHT22;2424;49.696;6.630;2022-12-18T07:55:59;-9.80;99.90
4820;DHT22;2424;49.696;6.630;2022-12-18T08:01:22;-9.70;99.90
4820;DHT22;2424;49.696;6.630;2022-12-18T08:06:46;-9.60;99.90
4820;DHT22;2424;49.696;6.630;2022-12-18T08:12:08;-9.60;99.90
4820;DHT22;2424;49.696;6.630;2022-12-18T08:17:30;-9.60;99.90
4820;DHT22;2424;49.696;6.630;2022-12-18T08:22:53;-9.50;99.90
4820;DHT22;2424;49.696;6.630;2022-12-18T08:28:15;-9.50;99.90
4820;DHT22;2424;49.696;6.630;2022-12-18T08:33:41;-9.40;99.90
4820;DHT22;2424;49.696;6.630;2022-12-18T08:39:05;-9.40;99.90
4820;DHT22;2424;49.696;6.630;2022-12-18T08:44:27;-9.30;99.90
4820;DHT22;2424;49.696;6.630;2022-12-18T08:50:01;-9.20;99.90
4820;DHT22;2424;49.696;6.630;2022-12-18T08:55:25;-9.10;99.90
4820;DHT22;2424;49.696;6.630;2022-12-18T09:00:47;-9.10;99.90
4820;DHT22;2424;49.696;6.630;2022-12-18T09:06:09;-9.00;99.90
4820;DHT22;2424;49.696;6.630;2022-12-18T09:11:33;-8.90;99.90
4820;DHT22;2424;49.696;6.630;2022-12-18T09:16:55;-8.80;99.90
4820;DHT22;2424;49.696;6.630;2022-12-18T09:22:17;-8.60;99.90
4820;DHT22;2424;49.696;6.630;2022-12-18T09:27:40;-8.40;99.90
4820;DHT22;2424;49.696;6.630;2022-12-18T09:33:02;-8.30;99.90
4820;DHT22;2424;49.696;6.630;2022-12-18T09:38:24;-8.20;99.90
4820;DHT22;2424;49.696;6.630;2022-12-18T09:43:51;-8.10;99.90
4820;DHT22;2424;49.696;6.630;2022-12-18T09:49:16;-8.00;99.90
4820;DHT22;2424;49.696;6.630;2022-12-18T09:54:41;-7.80;99.90
4820;DHT22;2424;49.696;6.630;2022-12-18T10:00:11;-7.80;99.90
4820;DHT22;2424;49.696;6.630;2022-12-18T10:05:42;-7.70;99.90
4820;DHT22;2424;49.696;6.630;2022-12-18T10:11:24;-7.50;99.90
4820;DHT22;2424;49.696;6.630;2022-12-18T10:16:58;-7.40;99.90
4820;DHT22;2424;49.696;6.630;2022-12-18T10:22:34;-7.30;99.90
4820;DHT22;2424;49.696;6.630;2022-12-18T10:28:08;-7.20;99.90
4820;DHT22;2424;49.696;6.630;2022-12-18T10:33:33;-7.10;99.90
4820;DHT22;2424;49.696;6.630;2022-12-18T10:39:14;-6.90;99.90
4820;DHT22;2424;49.696;6.630;2022-12-18T10:44:37;-6.80;99.90
4820;DHT22;2424;49.696;6.630;2022-12-18T10:50:01;-6.70;99.90
4820;DHT22;2424;49.696;6.630;2022-12-18T10:55:26;-6.60;99.90
4820;DHT22;2424;49.696;6.630;2022-12-18T11:01:03;-6.40;99.90
4820;DHT22;2424;49.696;6.630;2022-12-18T11:06:27;-6.30;99.90
4820;DHT22;2424;49.696;6.630;2022-12-18T11:11:49;-6.20;99.90
4820;DHT22;2424;49.696;6.630;2022-12-18T11:17:19;-6.10;99.90
4820;DHT22;2424;49.696;6.630;2022-12-18T11:22:43;-6.00;99.90
4820;DHT22;2424;49.696;6.630;2022-12-18T11:28:29;-5.90;99.90
4820;DHT22;2424;49.696;6.630;2022-12-18T11:34:09;-5.80;99.90
4820;DHT22;2424;49.696;6.630;2022-12-18T11:39:36;-5.60;99.90
4820;DHT22;2424;49.696;6.630;2022-12-18T11:45:00;-5.40;99.90
4820;DHT22;2424;49.696;6.630;2022-12-18T11:50:26;-5.30;99.90
4820;DHT22;2424;49.696;6.630;2022-12-18T11:56:00;-5.20;99.90
4820;DHT22;2424;49.696;6.630;2022-12-18T12:01:35;-5.10;99.90
4820;DHT22;2424;49.696;6.630;2022-12-18T12:07:07;-5.00;99.90
4820;DHT22;2424;49.696;6.630;2022-12-18T12:12:43;-5.00;99.90
4820;DHT22;2424;49.696;6.630;2022-12-18T12:18:20;-4.90;99.90
4820;DHT22;2424;49.696;6.630;2022-12-18T12:23:51;-4.80;99.90
4820;DHT22;2424;49.696;6.630;2022-12-18T12:29:32;-4.80;99.90
4820;DHT22;2424;49.696;6.630;2022-12-18T12:35:05;-4.80;99.90
4820;DHT22;2424;49.696;6.630;2022-12-18T12:40:36;-4.80;99.90
4820;DHT22;2424;49.696;6.630;2022-12-18T12:46:03;-4.70;99.90
4820;DHT22;2424;49.696;6.630;2022-12-18T12:51:28;-4.70;99.90
4820;DHT22;2424;49.696;6.630;2022-12-18T12:56:53;-4.60;99.90
4820;DHT22;2424;49.696;6.630;2022-12-18T13:02:26;-4.60;99.90
4820;DHT22;2424;49.696;6.630;2022-12-18T13:07:53;-4.40;99.90
4820;DHT22;2424;49.696;6.630;2022-12-18T13:13:16;-4.40;99.90
4820;DHT22;2424;49.696;6.630;2022-12-18T13:18:48;-4.40;99.90
4820;DHT22;2424;49.696;6.630;2022-12-18T13:24:15;-4.30;99.90
4820;DHT22;2424;49.696;6.630;2022-12-18T13:29:43;-4.30;99.90
4820;DHT22;2424;49.696;6.630;2022-12-18T13:35:38;-4.30;99.90
4820;DHT22;2424;49.696;6.630;2022-12-18T13:41:01;-4.30;99.90
4820;DHT22;2424;49.696;6.630;2022-12-18T13:46:27;-4.20;99.90
4820;DHT22;2424;49.696;6.630;2022-12-18T13:51:52;-4.20;99.90
4820;DHT22;2424;49.696;6.630;2022-12-18T13:57:27;-4.20;99.90
4820;DHT22;2424;49.696;6.630;2022-12-18T14:02:50;-4.20;99.90
4820;DHT22;2424;49.696;6.630;2022-12-18T14:08:14;-4.20;99.90
4820;DHT22;2424;49.696;6.630;2022-12-18T14:13:39;-4.20;99.90
4820;DHT22;2424;49.696;6.630;2022-12-18T14:19:03;-4.20;99.90
4820;DHT22;2424;49.696;6.630;2022-12-18T14:24:26;-4.20;99.90
4820;DHT22;2424;49.696;6.630;2022-12-18T14:29:49;-4.20;99.90
4820;DHT22;2424;49.696;6.630;2022-12-18T14:35:13;-4.20;99.90
4820;DHT22;2424;49.696;6.630;2022-12-18T14:40:36;-4.20;99.90
4820;DHT22;2424;49.696;6.630;2022-12-18T14:45:59;-4.20;99.90
4820;DHT22;2424;49.696;6.630;2022-12-18T14:51:23;-4.20;99.90
4820;DHT22;2424;49.696;6.630;2022-12-18T14:56:51;-4.20;99.90
4820;DHT22;2424;49.696;6.630;2022-12-18T15:02:21;-4.20;99.90
4820;DHT22;2424;49.696;6.630;2022-12-18T15:07:45;-4.20;99.90
4820;DHT22;2424;49.696;6.630;2022-12-18T15:13:21;-4.20;99.90
4820;DHT22;2424;49.696;6.630;2022-12-18T15:18:43;-4.30;99.90
4820;DHT22;2424;49.696;6.630;2022-12-18T15:24:17;-4.30;99.90
4820;DHT22;2424;49.696;6.630;2022-12-18T15:29:41;-4.30;99.90
4820;DHT22;2424;49.696;6.630;2022-12-18T15:35:07;-4.40;99.90
4820;DHT22;2424;49.696;6.630;2022-12-18T15:40:33;-4.40;99.90
4820;DHT22;2424;49.696;6.630;2022-12-18T15:45:56;-4.40;99.90
4820;DHT22;2424;49.696;6.630;2022-12-18T15:51:20;-4.40;99.90
4820;DHT22;2424;49.696;6.630;2022-12-18T15:56:43;-4.50;99.90
4820;DHT22;2424;49.696;6.630;2022-12-18T16:02:24;-4.50;99.90
4820;DHT22;2424;49.696;6.630;2022-12-18T16:07:46;-4.50;99.90
4820;DHT22;2424;49.696;6.630;2022-12-18T16:13:10;-4.50;99.90
4820;DHT22;2424;49.696;6.630;2022-12-18T16:18:33;-4.50;99.90
4820;DHT22;2424;49.696;6.630;2022-12-18T16:23:55;-4.50;99.90
4820;DHT22;2424;49.696;6.630;2022-12-18T16:29:18;-4.50;99.90
4820;DHT22;2424;49.696;6.630;2022-12-18T16:34:41;-4.50;99.90
4820;DHT22;2424;49.696;6.630;2022-12-18T16:40:04;-4.50;99.90
4820;DHT22;2424;49.696;6.630;2022-12-18T16:45:29;-4.50;99.90
4820;DHT22;2424;49.696;6.630;2022-12-18T16:50:59;-4.50;99.90
4820;DHT22;2424;49.696;6.630;2022-12-18T16:56:22;-4.60;99.90
4820;DHT22;2424;49.696;6.630;2022-12-18T17:01:44;-4.60;99.90
4820;DHT22;2424;49.696;6.630;2022-12-18T17:07:08;-4.50;99.90
4820;DHT22;2424;49.696;6.630;2022-12-18T17:12:30;-4.50;99.90
4820;DHT22;2424;49.696;6.630;2022-12-18T17:17:52;-4.50;99.90
4820;DHT22;2424;49.696;6.630;2022-12-18T17:23:15;-4.50;99.90
4820;DHT22;2424;49.696;6.630;2022-12-18T17:28:38;-4.50;99.90
4820;DHT22;2424;49.696;6.630;2022-12-18T17:34:02;-4.50;99.90
4820;DHT22;2424;49.696;6.630;2022-12-18T17:39:25;-4.50;99.90
4820;DHT22;2424;49.696;6.630;2022-12-18T17:44:48;-4.50;99.90
4820;DHT22;2424;49.696;6.630;2022-12-18T17:50:10;-4.40;99.90
4820;DHT22;2424;49.696;6.630;2022-12-18T17:55:33;-4.40;99.90
4820;DHT22;2424;49.696;6.630;2022-12-18T18:00:55;-4.40;99.90
4820;DHT22;2424;49.696;6.630;2022-12-18T18:06:20;-4.40;99.90
4820;DHT22;2424;49.696;6.630;2022-12-18T18:11:43;-4.50;99.90
4820;DHT22;2424;49.696;6.630;2022-12-18T18:17:25;-4.40;99.90
4820;DHT22;2424;49.696;6.630;2022-12-18T18:22:47;-4.40;99.90
4820;DHT22;2424;49.696;6.630;2022-12-18T18:28:10;-4.40;99.90
4820;DHT22;2424;49.696;6.630;2022-12-18T18:33:32;-4.40;99.90
4820;DHT22;2424;49.696;6.630;2022-12-18T18:38:56;-4.30;99.90
4820;DHT22;2424;49.696;6.630;2022-12-18T18:44:20;-4.30;99.90
4820;DHT22;2424;49.696;6.630;2022-12-18T18:49:42;-4.30;99.90
4820;DHT22;2424;49.696;6.630;2022-12-18T18:55:05;-4.30;99.90
4820;DHT22;2424;49.696;6.630;2022-12-18T19:00:28;-4.30;99.90
4820;DHT22;2424;49.696;6.630;2022-12-18T19:05:51;-4.30;99.90
4820;DHT22;2424;49.696;6.630;2022-12-18T19:11:15;-4.20;99.90
4820;DHT22;2424;49.696;6.630;2022-12-18T19:16:56;-4.20;99.90
4820;DHT22;2424;49.696;6.630;2022-12-18T19:22:18;-4.20;99.90
4820;DHT22;2424;49.696;6.630;2022-12-18T19:27:40;-4.20;99.90
4820;DHT22;2424;49.696;6.630;2022-12-18T19:33:04;-4.20;99.90
4820;DHT22;2424;49.696;6.630;2022-12-18T19:38:26;-4.20;99.90
4820;DHT22;2424;49.696;6.630;2022-12-18T19:43:49;-4.20;99.90
4820;DHT22;2424;49.696;6.630;2022-12-18T19:49:13;-4.20;99.90
4820;DHT22;2424;49.696;6.630;2022-12-18T19:54:35;-4.10;99.90
4820;DHT22;2424;49.696;6.630;2022-12-18T19:59:57;-4.10;99.90
4820;DHT22;2424;49.696;6.630;2022-12-18T20:05:20;-4.10;99.90
4820;DHT22;2424;49.696;6.630;2022-12-18T20:10:44;-4.10;99.90
4820;DHT22;2424;49.696;6.630;2022-12-18T20:16:08;-4.10;99.90
4820;DHT22;2424;49.696;6.630;2022-12-18T20:21:31;-4.00;99.90
4820;DHT22;2424;49.696;6.630;2022-12-18T20:26:54;-4.00;99.90
4820;DHT22;2424;49.696;6.630;2022-12-18T20:32:16;-4.00;99.90
4820;DHT22;2424;49.696;6.630;2022-12-18T20:37:39;-4.00;99.90
4820;DHT22;2424;49.696;6.630;2022-12-18T20:43:01;-4.00;99.90
4820;DHT22;2424;49.696;6.630;2022-12-18T20:48:23;-4.00;99.90
4820;DHT22;2424;49.696;6.630;2022-12-18T20:53:47;-3.90;99.90
4820;DHT22;2424;49.696;6.630;2022-12-18T20:59:09;-3.90;99.90
4820;DHT22;2424;49.696;6.630;2022-12-18T21:04:31;-3.90;99.90
4820;DHT22;2424;49.696;6.630;2022-12-18T21:09:54;-3.90;99.90
4820;DHT22;2424;49.696;6.630;2022-12-18T21:15:16;-3.90;99.90
4820;DHT22;2424;49.696;6.630;2022-12-18T21:20:39;-3.80;99.90
4820;DHT22;2424;49.696;6.630;2022-12-18T21:26:16;-3.80;99.90
4820;DHT22;2424;49.696;6.630;2022-12-18T21:31:38;-3.80;99.90
4820;DHT22;2424;49.696;6.630;2022-12-18T21:37:00;-3.80;99.90
4820;DHT22;2424;49.696;6.630;2022-12-18T21:42:24;-3.80;99.90
4820;DHT22;2424;49.696;6.630;2022-12-18T21:48:05;-3.70;99.90
4820;DHT22;2424;49.696;6.630;2022-12-18T21:53:27;-3.70;99.90
4820;DHT22;2424;49.696;6.630;2022-12-18T21:58:51;-3.70;99.90
4820;DHT22;2424;49.696;6.630;2022-12-18T22:04:13;-3.70;99.90
4820;DHT22;2424;49.696;6.630;2022-12-18T22:09:35;-3.70;99.90
4820;DHT22;2424;49.696;6.630;2022-12-18T22:14:58;-3.70;99.90
4820;DHT22;2424;49.696;6.630;2022-12-18T22:20:20;-3.60;99.90
4820;DHT22;2424;49.696;6.630;2022-12-18T22:25:42;-3.60;99.90
4820;DHT22;2424;49.696;6.630;2022-12-18T22:31:05;-3.60;99.90
4820;DHT22;2424;49.696;6.630;2022-12-18T22:36:31;-3.50;99.90
4820;DHT22;2424;49.696;6.630;2022-12-18T22:41:55;-3.50;99.90
4820;DHT22;2424;49.696;6.630;2022-12-18T22:47:18;-3.50;99.90
4820;DHT22;2424;49.696;6.630;2022-12-18T22:52:41;-3.40;99.90
4820;DHT22;2424;49.696;6.630;2022-12-18T22:58:03;-3.40;99.90
4820;DHT22;2424;49.696;6.630;2022-12-18T23:03:26;-3.40;99.90
4820;DHT22;2424;49.696;6.630;2022-12-18T23:08:48;-3.40;99.90
4820;DHT22;2424;49.696;6.630;2022-12-18T23:14:11;-3.40;99.90
4820;DHT22;2424;49.696;6.630;2022-12-18T23:19:34;-3.30;99.90
4820;DHT22;2424;49.696;6.630;2022-12-18T23:24:56;-3.30;99.90
4820;DHT22;2424;49.696;6.630;2022-12-18T23:30:18;-3.20;99.90
4820;DHT22;2424;49.696;6.630;2022-12-18T23:35:42;-3.20;99.90
4820;DHT22;2424;49.696;6.630;2022-12-18T23:41:08;-3.20;99.90
4820;DHT22;2424;49.696;6.630;2022-12-18T23:46:34;-3.10;99.90
4820;DHT22;2424;49.696;6.630;2022-12-18T23:51:58;-3.10;99.90
4820;DHT22;2424;49.696;6.630;2022-12-18T23:57:20;-3.10;99.90
